Terminal Aerodrome Forecast
Issued by NWS

Home | Current Version | Previous Version | Graphics & Text | Print | Product List | Glossary On
Versions: 1 2 3 4 5 6 7 8 9 10 11 12
847
FTUS43 KICT 032335
TAFSLN
TAF
KSLN 032335Z 0400/0424 30007KT P6SM SKC
     FM040200 VRB05KT P6SM SKC
     FM041600 23010KT P6SM FEW250=

USA.gov is the U.S. government's official web portal to all federal, state and local government web resources and services.